Time;durP1;ratioP1;P1;durP2;ratioP2;P2;SDS_P1;SDS_P2;PMS_P1;PMS_P2;Temp;Humidity;BMP_temperature;BMP_pressure;BME280_temperature;BME280_humidity;BME280_pressure;Samples;Min_cycle;Max_cycle;Signal;HPM_P1;HPM_P2
2021/10/05 00:02:48;;;;;;;17.02;9.80;;;;;;;;;;6187299;28;20161;-83
2021/10/05 00:05:50;;;;;;;16.35;8.50;;;;;;;;;;6221675;28;20049;-84
2021/10/05 00:08:52;;;;;;;18.15;9.27;;;;;;;;;;6189096;28;20035;-85
2021/10/05 00:11:54;;;;;;;18.17;8.75;;;;;;;;;;6184356;28;20050;-87
2021/10/05 00:14:56;;;;;;;15.98;9.38;;;;;;;;;;6173125;28;20061;-86
2021/10/05 00:17:57;;;;;;;16.73;8.40;;;;;;;;;;6190420;28;20121;-85
2021/10/05 00:20:59;;;;;;;16.85;9.65;;;;;;;;;;6191816;28;20044;-85
2021/10/05 00:24:01;;;;;;;14.82;7.93;;;;;;;;;;6190292;28;20417;-86
2021/10/05 00:27:03;;;;;;;16.17;8.20;;;;;;;;;;6181332;28;20050;-85
2021/10/05 00:30:06;;;;;;;15.73;8.27;;;;;;;;;;6163422;28;20396;-83
2021/10/05 00:33:07;;;;;;;16.20;8.50;;;;;;;;;;6170459;28;20042;-83
2021/10/05 00:36:09;;;;;;;14.90;8.18;;;;;;;;;;6188180;28;20050;-84
2021/10/05 00:39:10;;;;;;;14.18;8.73;;;;;;;;;;6186966;28;20088;-83
2021/10/05 00:42:12;;;;;;;16.48;9.32;;;;;;;;;;6173910;28;20129;-84
2021/10/05 00:45:14;;;;;;;15.75;7.57;;;;;;;;;;6188485;28;20121;-83
2021/10/05 00:48:15;;;;;;;13.60;7.85;;;;;;;;;;6184261;28;20038;-84
2021/10/05 00:51:17;;;;;;;14.40;7.22;;;;;;;;;;6189727;28;20050;-83
2021/10/05 00:54:18;;;;;;;14.57;7.57;;;;;;;;;;6184012;28;20045;-83
2021/10/05 00:57:20;;;;;;;13.15;7.13;;;;;;;;;;6186795;28;20046;-84
2021/10/05 01:00:22;;;;;;;14.00;8.05;;;;;;;;;;6191804;28;20049;-84
2021/10/05 01:03:23;;;;;;;19.27;8.00;;;;;;;;;;6190042;28;20050;-85
2021/10/05 01:06:25;;;;;;;16.02;8.18;;;;;;;;;;6223098;28;20039;-85
2021/10/05 01:09:27;;;;;;;15.18;8.20;;;;;;;;;;6188585;28;20125;-85
2021/10/05 01:12:29;;;;;;;16.73;8.87;;;;;;;;;;6188026;28;20646;-85
2021/10/05 01:15:31;;;;;;;14.02;7.60;;;;;;;;;;6189880;28;20599;-85
2021/10/05 01:18:33;;;;;;;15.25;7.82;;;;;;;;;;6204023;28;20046;-83
2021/10/05 01:21:34;;;;;;;15.90;8.23;;;;;;;;;;6189146;28;20050;-85
2021/10/05 01:24:36;;;;;;;15.52;8.07;;;;;;;;;;6199160;28;20043;-83
2021/10/05 01:27:42;;;;;;;16.23;8.45;;;;;;;;;;6186793;28;20117;-86
2021/10/05 01:30:44;;;;;;;15.75;9.02;;;;;;;;;;6187315;28;20050;-85
2021/10/05 01:33:45;;;;;;;14.23;7.35;;;;;;;;;;6184164;28;20089;-83
2021/10/05 01:36:47;;;;;;;16.35;8.90;;;;;;;;;;6203974;28;20050;-84
2021/10/05 01:39:49;;;;;;;16.15;8.02;;;;;;;;;;6179255;28;20038;-83
2021/10/05 01:42:50;;;;;;;13.18;7.50;;;;;;;;;;6169280;28;20046;-84
2021/10/05 01:45:53;;;;;;;15.52;8.13;;;;;;;;;;6189140;28;20074;-86
2021/10/05 01:48:54;;;;;;;16.60;8.75;;;;;;;;;;6178817;28;20050;-85
2021/10/05 01:51:56;;;;;;;16.13;9.07;;;;;;;;;;6187044;28;20092;-84
2021/10/05 01:54:58;;;;;;;13.05;7.72;;;;;;;;;;6184807;28;20518;-85
2021/10/05 01:57:59;;;;;;;13.07;7.28;;;;;;;;;;6187220;28;20056;-84
2021/10/05 02:01:02;;;;;;;14.30;8.18;;;;;;;;;;6190275;28;20056;-83
2021/10/05 02:04:04;;;;;;;13.52;7.53;;;;;;;;;;6166966;28;20045;-84
2021/10/05 02:07:06;;;;;;;17.00;9.00;;;;;;;;;;6187672;28;20133;-85
2021/10/05 02:10:09;;;;;;;16.85;8.50;;;;;;;;;;6180104;28;20054;-85
2021/10/05 02:13:11;;;;;;;18.38;9.13;;;;;;;;;;6177751;28;20177;-85
2021/10/05 02:16:12;;;;;;;19.45;9.15;;;;;;;;;;6221021;28;20046;-85
2021/10/05 02:19:14;;;;;;;13.52;7.97;;;;;;;;;;6187981;28;20042;-86
2021/10/05 02:22:16;;;;;;;12.90;7.35;;;;;;;;;;6190928;28;20035;-83
2021/10/05 02:25:17;;;;;;;12.30;7.55;;;;;;;;;;6190549;28;20519;-83
2021/10/05 02:28:19;;;;;;;14.38;7.90;;;;;;;;;;6223770;28;20050;-86
2021/10/05 02:31:21;;;;;;;22.73;8.93;;;;;;;;;;6207610;28;20137;-85
2021/10/05 02:34:22;;;;;;;21.02;9.75;;;;;;;;;;6190895;28;20053;-83
2021/10/05 02:37:29;;;;;;;24.45;10.02;;;;;;;;;;6192529;28;20050;-84
2021/10/05 02:40:30;;;;;;;29.00;10.32;;;;;;;;;;6190775;28;20499;-83
2021/10/05 02:43:32;;;;;;;31.50;10.73;;;;;;;;;;6192430;28;20434;-84
2021/10/05 02:46:34;;;;;;;30.13;10.80;;;;;;;;;;6170908;28;20501;-83
2021/10/05 02:49:43;;;;;;;32.97;10.55;;;;;;;;;;6193553;28;20052;-83
2021/10/05 02:52:44;;;;;;;47.97;12.60;;;;;;;;;;6175316;28;20053;-83
2021/10/05 02:55:47;;;;;;;40.08;12.68;;;;;;;;;;6192204;28;20046;-85
2021/10/05 02:58:48;;;;;;;43.40;12.30;;;;;;;;;;6174126;28;20050;-84
2021/10/05 03:01:50;;;;;;;26.35;11.30;;;;;;;;;;6190842;28;20058;-85
2021/10/05 03:04:52;;;;;;;22.42;10.23;;;;;;;;;;6191509;28;20676;-85
2021/10/05 03:07:53;;;;;;;25.38;10.20;;;;;;;;;;6192956;28;20507;-85
2021/10/05 03:10:56;;;;;;;28.23;10.10;;;;;;;;;;6191453;28;20611;-86
2021/10/05 03:13:58;;;;;;;32.72;10.90;;;;;;;;;;6206375;28;20046;-84
2021/10/05 03:16:59;;;;;;;38.45;12.57;;;;;;;;;;6171825;28;20134;-82
2021/10/05 03:20:01;;;;;;;40.15;11.55;;;;;;;;;;6192781;28;20504;-85
2021/10/05 03:23:03;;;;;;;48.67;13.32;;;;;;;;;;6180096;28;20046;-84
2021/10/05 03:26:04;;;;;;;58.88;13.07;;;;;;;;;;6196151;28;20050;-85
2021/10/05 03:29:10;;;;;;;54.33;14.27;;;;;;;;;;6184620;28;20125;-85
2021/10/05 03:32:11;;;;;;;51.25;13.27;;;;;;;;;;6175558;28;20044;-83
2021/10/05 03:35:13;;;;;;;53.05;13.43;;;;;;;;;;6187112;28;20046;-83
2021/10/05 03:38:15;;;;;;;66.28;13.30;;;;;;;;;;6188754;28;20046;-84
2021/10/05 03:41:16;;;;;;;60.00;14.02;;;;;;;;;;6186248;28;20046;-83
2021/10/05 03:44:18;;;;;;;62.78;13.27;;;;;;;;;;6186120;28;20035;-83
2021/10/05 03:47:20;;;;;;;54.53;12.85;;;;;;;;;;6220793;28;20049;-85
2021/10/05 03:50:21;;;;;;;54.60;12.75;;;;;;;;;;6188421;28;20043;-83
2021/10/05 03:53:23;;;;;;;48.53;12.25;;;;;;;;;;6190395;28;20833;-83
2021/10/05 03:56:25;;;;;;;45.50;12.32;;;;;;;;;;6171628;28;20047;-83
2021/10/05 03:59:26;;;;;;;42.08;12.50;;;;;;;;;;6222000;28;20452;-83
2021/10/05 04:02:28;;;;;;;43.13;11.80;;;;;;;;;;6182473;28;20496;-82
2021/10/05 04:05:30;;;;;;;41.35;12.57;;;;;;;;;;6203954;28;20638;-83
2021/10/05 04:08:32;;;;;;;51.00;13.43;;;;;;;;;;6204991;28;20042;-84
2021/10/05 04:11:34;;;;;;;43.97;11.75;;;;;;;;;;6168006;28;20514;-85
2021/10/05 04:14:36;;;;;;;49.42;13.40;;;;;;;;;;6186903;28;20046;-84
2021/10/05 04:17:38;;;;;;;47.90;12.88;;;;;;;;;;6188822;28;20042;-84
2021/10/05 04:20:39;;;;;;;51.03;13.82;;;;;;;;;;6188250;28;20407;-84
2021/10/05 04:23:41;;;;;;;57.75;13.82;;;;;;;;;;6187528;28;20492;-83
2021/10/05 04:26:43;;;;;;;58.33;13.00;;;;;;;;;;6219173;28;20038;-84
2021/10/05 04:29:45;;;;;;;50.88;13.85;;;;;;;;;;6189950;28;20076;-82
2021/10/05 04:32:47;;;;;;;42.28;12.30;;;;;;;;;;6187240;28;20104;-83
2021/10/05 04:35:48;;;;;;;51.65;13.43;;;;;;;;;;6164303;28;20051;-82
2021/10/05 04:38:50;;;;;;;51.78;12.88;;;;;;;;;;6195850;28;20054;-82
2021/10/05 04:41:51;;;;;;;50.72;13.07;;;;;;;;;;6180095;28;20053;-84
2021/10/05 04:44:53;;;;;;;45.53;13.13;;;;;;;;;;6160950;28;20051;-82
2021/10/05 04:47:54;;;;;;;51.08;14.77;;;;;;;;;;6178586;28;20057;-83
2021/10/05 04:50:56;;;;;;;63.45;14.90;;;;;;;;;;6189406;28;20048;-84
2021/10/05 04:53:58;;;;;;;55.58;14.63;;;;;;;;;;6188508;28;20046;-83
2021/10/05 04:56:59;;;;;;;61.55;14.43;;;;;;;;;;6187380;28;20080;-82
2021/10/05 05:00:04;;;;;;;55.92;13.88;;;;;;;;;;6171823;28;20051;-84
2021/10/05 05:03:06;;;;;;;54.88;13.80;;;;;;;;;;6197026;28;20048;-84
2021/10/05 05:06:07;;;;;;;52.83;13.95;;;;;;;;;;6195777;28;20051;-84
2021/10/05 05:09:09;;;;;;;53.63;13.68;;;;;;;;;;6210255;28;20046;-89
2021/10/05 05:12:11;;;;;;;53.20;13.13;;;;;;;;;;6194635;28;20062;-84
2021/10/05 05:15:13;;;;;;;53.67;13.73;;;;;;;;;;6195808;28;20048;-85
2021/10/05 05:18:15;;;;;;;48.17;13.30;;;;;;;;;;6195548;28;20042;-85
2021/10/05 05:21:16;;;;;;;48.40;14.05;;;;;;;;;;6194472;28;20046;-85
2021/10/05 05:24:18;;;;;;;49.03;14.50;;;;;;;;;;6210345;28;20065;-89
2021/10/05 05:27:21;;;;;;;51.03;13.73;;;;;;;;;;6194608;28;20053;-84
2021/10/05 05:30:23;;;;;;;44.97;13.50;;;;;;;;;;6196752;28;20042;-87
2021/10/05 05:33:24;;;;;;;42.75;14.30;;;;;;;;;;6196086;28;20836;-85
2021/10/05 05:36:26;;;;;;;43.00;12.98;;;;;;;;;;6226519;28;20058;-84
2021/10/05 05:39:27;;;;;;;45.72;14.13;;;;;;;;;;6209982;28;20060;-85
2021/10/05 05:42:29;;;;;;;42.05;13.50;;;;;;;;;;6195156;28;20046;-83
2021/10/05 05:45:33;;;;;;;43.65;13.65;;;;;;;;;;6194206;28;20061;-85
2021/10/05 05:48:34;;;;;;;41.13;13.57;;;;;;;;;;6194039;28;20045;-88
2021/10/05 05:51:36;;;;;;;36.03;13.35;;;;;;;;;;6196317;28;20042;-88
2021/10/05 05:54:38;;;;;;;32.00;12.70;;;;;;;;;;6199612;28;20141;-86
2021/10/05 05:57:39;;;;;;;33.63;12.38;;;;;;;;;;6227471;28;20516;-85
2021/10/05 06:00:42;;;;;;;36.08;12.50;;;;;;;;;;6200907;28;20048;-86
2021/10/05 06:03:46;;;;;;;29.88;12.02;;;;;;;;;;6196157;28;20042;-88
2021/10/05 06:06:47;;;;;;;30.05;11.10;;;;;;;;;;6201055;28;20172;-86
2021/10/05 06:09:49;;;;;;;27.95;12.10;;;;;;;;;;6200093;28;20049;-86
2021/10/05 06:12:53;;;;;;;27.45;11.25;;;;;;;;;;6203375;28;20046;-86
2021/10/05 06:15:55;;;;;;;27.05;12.10;;;;;;;;;;6217317;28;20146;-86
2021/10/05 06:18:56;;;;;;;22.08;10.35;;;;;;;;;;6210794;28;20049;-85
2021/10/05 06:21:58;;;;;;;23.98;11.43;;;;;;;;;;6200944;28;20057;-84
2021/10/05 06:25:03;;;;;;;28.35;13.73;;;;;;;;;;6200359;28;20035;-84
2021/10/05 06:28:05;;;;;;;20.60;10.48;;;;;;;;;;6177103;28;20050;-88
2021/10/05 06:31:07;;;;;;;23.42;11.30;;;;;;;;;;6210306;28;20043;-87
2021/10/05 06:34:08;;;;;;;27.40;12.63;;;;;;;;;;6225643;28;20054;-89
2021/10/05 06:37:10;;;;;;;23.33;11.20;;;;;;;;;;6184670;28;20066;-85
2021/10/05 06:40:12;;;;;;;20.75;9.45;;;;;;;;;;6202337;28;20101;-85
2021/10/05 06:43:14;;;;;;;20.77;10.23;;;;;;;;;;6212204;28;20085;-85
2021/10/05 06:46:16;;;;;;;22.52;10.57;;;;;;;;;;6199181;28;20443;-87
2021/10/05 06:49:17;;;;;;;22.55;10.30;;;;;;;;;;6201953;28;20046;-84
2021/10/05 06:52:19;;;;;;;20.23;10.60;;;;;;;;;;6199267;28;20042;-83
2021/10/05 06:55:21;;;;;;;21.15;9.93;;;;;;;;;;6195295;28;20046;-86
2021/10/05 06:58:23;;;;;;;22.35;10.63;;;;;;;;;;6229325;28;20039;-84
2021/10/05 07:01:24;;;;;;;18.30;8.90;;;;;;;;;;6194388;28;20072;-83
2021/10/05 07:04:26;;;;;;;15.90;8.50;;;;;;;;;;6192623;28;20042;-83
2021/10/05 07:07:28;;;;;;;18.88;9.43;;;;;;;;;;6179237;28;20042;-86
2021/10/05 07:10:30;;;;;;;17.80;9.20;;;;;;;;;;6198889;28;20038;-87
2021/10/05 07:13:32;;;;;;;18.20;8.83;;;;;;;;;;6192746;28;20046;-85
2021/10/05 07:16:33;;;;;;;18.05;8.70;;;;;;;;;;6230448;28;20441;-86
2021/10/05 07:19:35;;;;;;;16.48;8.32;;;;;;;;;;6198404;28;20046;-84
2021/10/05 07:22:37;;;;;;;15.00;7.88;;;;;;;;;;6197771;28;20049;-86
2021/10/05 07:25:38;;;;;;;13.27;7.88;;;;;;;;;;6198024;28;20034;-84
2021/10/05 07:28:40;;;;;;;15.05;8.00;;;;;;;;;;6196799;28;20044;-87
2021/10/05 07:31:42;;;;;;;13.80;7.38;;;;;;;;;;6181844;28;20042;-83
2021/10/05 07:34:44;;;;;;;10.93;6.68;;;;;;;;;;6197595;28;20047;-84
2021/10/05 07:37:46;;;;;;;11.20;6.60;;;;;;;;;;6197302;28;20054;-87
2021/10/05 07:40:48;;;;;;;10.25;6.13;;;;;;;;;;6228733;28;20056;-87
2021/10/05 07:43:49;;;;;;;8.23;5.40;;;;;;;;;;6199528;28;20058;-88
2021/10/05 07:46:51;;;;;;;10.27;4.88;;;;;;;;;;6212653;28;20042;-84
2021/10/05 07:49:53;;;;;;;6.90;4.70;;;;;;;;;;6201185;28;20072;-85
2021/10/05 07:52:55;;;;;;;9.05;4.90;;;;;;;;;;6216587;28;20042;-85
2021/10/05 07:55:57;;;;;;;6.68;3.40;;;;;;;;;;6201889;28;20097;-86
2021/10/05 07:58:59;;;;;;;8.88;5.35;;;;;;;;;;6234282;28;20133;-86
2021/10/05 08:02:01;;;;;;;6.13;4.17;;;;;;;;;;6199405;28;20050;-86
2021/10/05 08:05:03;;;;;;;8.00;4.50;;;;;;;;;;6196639;28;20053;-86
2021/10/05 08:08:07;;;;;;;7.23;4.77;;;;;;;;;;6195199;28;20048;-85
2021/10/05 08:11:11;;;;;;;11.32;7.68;;;;;;;;;;6193282;28;20042;-86
2021/10/05 08:14:13;;;;;;;5.40;3.80;;;;;;;;;;6195575;28;20150;-84
2021/10/05 08:17:14;;;;;;;6.63;4.32;;;;;;;;;;6212006;28;20047;-85
2021/10/05 08:20:16;;;;;;;10.68;4.30;;;;;;;;;;6192553;28;20053;-85
2021/10/05 08:23:18;;;;;;;12.02;9.07;;;;;;;;;;6194579;28;20043;-89
2021/10/05 08:26:20;;;;;;;6.85;4.47;;;;;;;;;;6194929;28;20050;-84
2021/10/05 08:29:22;;;;;;;7.72;5.60;;;;;;;;;;6196188;28;20512;-85
2021/10/05 08:32:23;;;;;;;8.13;7.20;;;;;;;;;;6194911;28;20125;-87
2021/10/05 08:35:25;;;;;;;6.15;4.43;;;;;;;;;;6193908;28;20753;-85
2021/10/05 08:38:27;;;;;;;6.28;4.57;;;;;;;;;;6227908;28;20105;-85
2021/10/05 08:41:29;;;;;;;6.30;4.13;;;;;;;;;;6196882;28;20042;-83
2021/10/05 08:44:31;;;;;;;7.63;4.93;;;;;;;;;;6200101;28;20122;-87
2021/10/05 08:47:33;;;;;;;7.95;4.80;;;;;;;;;;6199261;28;20564;-85
2021/10/05 08:50:34;;;;;;;8.23;5.40;;;;;;;;;;6198800;28;20149;-86
2021/10/05 08:53:38;;;;;;;7.35;5.25;;;;;;;;;;6199268;28;20070;-84
2021/10/05 08:56:44;;;;;;;8.90;5.97;;;;;;;;;;6196091;28;20578;-85
2021/10/05 08:59:46;;;;;;;8.43;5.47;;;;;;;;;;6196436;28;20096;-83
2021/10/05 09:03:08;;;;;;;8.57;5.32;;;;;;;;;;6205134;28;20050;-85
2021/10/05 09:06:14;;;;;;;10.48;5.82;;;;;;;;;;6180790;28;20038;-85
2021/10/05 09:09:18;;;;;;;7.53;5.32;;;;;;;;;;6198209;28;20042;-85
2021/10/05 09:12:22;;;;;;;6.97;5.20;;;;;;;;;;6230108;28;20133;-85
2021/10/05 09:15:24;;;;;;;8.88;5.72;;;;;;;;;;6196085;28;20046;-86
2021/10/05 09:18:25;;;;;;;8.80;6.25;;;;;;;;;;6187699;28;20500;-85
2021/10/05 09:21:34;;;;;;;8.38;5.43;;;;;;;;;;6189688;28;20172;-83
2021/10/05 09:24:36;;;;;;;8.88;5.70;;;;;;;;;;6192227;28;20042;-83
2021/10/05 09:27:48;;;;;;;11.80;6.03;;;;;;;;;;6185729;28;20132;-85
2021/10/05 09:31:06;;;;;;;9.52;6.25;;;;;;;;;;6200196;28;20066;-85
2021/10/05 09:34:08;;;;;;;11.05;6.75;;;;;;;;;;6198633;28;20307;-83
2021/10/05 09:37:13;;;;;;;10.48;6.43;;;;;;;;;;6199889;28;20062;-83
2021/10/05 09:40:16;;;;;;;9.40;6.20;;;;;;;;;;6200348;28;20042;-82
2021/10/05 09:43:22;;;;;;;9.97;6.50;;;;;;;;;;6190664;28;20129;-83
2021/10/05 09:46:23;;;;;;;9.65;6.60;;;;;;;;;;6200927;28;20434;-84
2021/10/05 09:49:25;;;;;;;8.05;5.28;;;;;;;;;;6176891;28;20051;-81
2021/10/05 09:52:41;;;;;;;8.13;5.90;;;;;;;;;;6190044;28;20042;-81
2021/10/05 09:55:47;;;;;;;8.25;5.97;;;;;;;;;;6186075;28;20064;-82
2021/10/05 09:58:54;;;;;;;7.95;5.32;;;;;;;;;;6199689;28;20056;-82
2021/10/05 10:01:57;;;;;;;7.32;5.10;;;;;;;;;;6195597;28;20038;-82
2021/10/05 10:05:00;;;;;;;7.47;5.40;;;;;;;;;;6212488;28;20050;-83
2021/10/05 10:08:02;;;;;;;5.85;4.53;;;;;;;;;;6198450;28;20070;-83
2021/10/05 10:11:04;;;;;;;6.88;5.18;;;;;;;;;;6214108;28;20054;-85
2021/10/05 10:14:06;;;;;;;7.15;5.40;;;;;;;;;;6181319;28;20061;-84
2021/10/05 10:17:09;;;;;;;6.88;5.18;;;;;;;;;;6201057;28;20072;-84
2021/10/05 10:20:26;;;;;;;7.32;5.47;;;;;;;;;;6203121;28;20134;-85
2021/10/05 10:23:29;;;;;;;5.63;4.80;;;;;;;;;;6201532;28;20054;-84
2021/10/05 10:26:30;;;;;;;5.20;4.35;;;;;;;;;;6200352;28;20105;-84
2021/10/05 10:29:32;;;;;;;6.00;4.53;;;;;;;;;;6201945;28;20129;-84
2021/10/05 10:32:50;;;;;;;5.50;4.70;;;;;;;;;;6213104;28;20053;-83
2021/10/05 10:35:58;;;;;;;6.30;4.80;;;;;;;;;;6203200;28;20121;-86
2021/10/05 10:39:13;;;;;;;6.10;4.80;;;;;;;;;;6184435;28;20040;-85
2021/10/05 10:42:30;;;;;;;6.05;5.28;;;;;;;;;;6194602;28;20124;-87
2021/10/05 10:45:42;;;;;;;9.70;8.55;;;;;;;;;;6197413;28;20175;-85
2021/10/05 10:48:53;;;;;;;7.05;5.30;;;;;;;;;;6186225;28;20066;-84
2021/10/05 10:51:55;;;;;;;6.43;4.50;;;;;;;;;;6197346;28;20110;-84
2021/10/05 10:54:58;;;;;;;4.10;3.60;;;;;;;;;;6195991;28;20499;-85
2021/10/05 10:57:59;;;;;;;5.63;4.03;;;;;;;;;;6196399;28;20054;-86
2021/10/05 11:01:05;;;;;;;4.25;3.70;;;;;;;;;;6196366;28;20042;-84
2021/10/05 11:04:08;;;;;;;4.78;4.35;;;;;;;;;;6192659;28;20566;-83
2021/10/05 11:07:12;;;;;;;7.68;5.90;;;;;;;;;;6178489;28;20074;-86
2021/10/05 11:10:14;;;;;;;4.97;3.72;;;;;;;;;;6174651;28;20121;-84
2021/10/05 11:13:16;;;;;;;4.25;3.85;;;;;;;;;;6207631;28;20042;-86
2021/10/05 11:16:22;;;;;;;4.13;3.70;;;;;;;;;;6219078;28;20133;-86
2021/10/05 11:19:32;;;;;;;4.43;3.85;;;;;;;;;;6195511;28;20041;-87
2021/10/05 11:22:34;;;;;;;3.50;3.10;;;;;;;;;;6225554;28;20038;-86
2021/10/05 11:25:36;;;;;;;6.20;3.13;;;;;;;;;;6169860;28;20046;-85
2021/10/05 11:28:44;;;;;;;3.50;3.20;;;;;;;;;;6190002;28;20042;-87
2021/10/05 11:31:49;;;;;;;2.80;2.60;;;;;;;;;;6205579;28;20077;-86
2021/10/05 11:34:51;;;;;;;2.70;2.50;;;;;;;;;;6189930;28;20058;-86
2021/10/05 11:37:55;;;;;;;2.40;2.20;;;;;;;;;;6193280;28;20054;-87
2021/10/05 11:40:58;;;;;;;2.63;2.13;;;;;;;;;;6187218;28;20055;-84
2021/10/05 11:44:00;;;;;;;3.95;2.88;;;;;;;;;;6223004;28;20104;-85
2021/10/05 11:47:06;;;;;;;2.35;2.15;;;;;;;;;;6193099;28;20046;-83
2021/10/05 11:50:10;;;;;;;2.50;2.30;;;;;;;;;;6193534;28;20042;-85
2021/10/05 11:53:11;;;;;;;2.28;2.08;;;;;;;;;;6194124;28;20515;-85
2021/10/05 11:56:15;;;;;;;2.47;1.90;;;;;;;;;;6193739;28;20053;-84
2021/10/05 11:59:31;;;;;;;1.95;1.60;;;;;;;;;;6177554;28;20492;-83
2021/10/05 12:02:40;;;;;;;1.95;1.85;;;;;;;;;;6195073;28;20154;-84
2021/10/05 12:05:41;;;;;;;2.22;2.03;;;;;;;;;;6196712;28;20053;-83
2021/10/05 12:08:45;;;;;;;2.10;1.90;;;;;;;;;;6198142;28;20495;-83
2021/10/05 12:11:47;;;;;;;2.20;2.00;;;;;;;;;;6194971;28;20157;-86
2021/10/05 12:14:52;;;;;;;2.20;2.00;;;;;;;;;;6206789;28;20125;-86
2021/10/05 12:18:06;;;;;;;2.47;2.20;;;;;;;;;;6189774;28;20054;-86
2021/10/05 12:21:28;;;;;;;2.38;1.95;;;;;;;;;;6203666;28;20424;-84
2021/10/05 12:24:40;;;;;;;1.70;1.60;;;;;;;;;;6189614;28;20050;-84
2021/10/05 12:27:47;;;;;;;2.20;2.00;;;;;;;;;;6193123;28;20046;-84
2021/10/05 12:30:48;;;;;;;2.15;1.95;;;;;;;;;;6225179;28;20389;-84
2021/10/05 12:34:08;;;;;;;2.63;2.00;;;;;;;;;;6206808;28;20125;-86
2021/10/05 12:37:10;;;;;;;2.30;1.90;;;;;;;;;;6191389;28;20121;-86
2021/10/05 12:40:43;;;;;;;2.20;2.00;;;;;;;;;;6186143;28;20053;-84
2021/10/05 12:43:47;;;;;;;1.60;1.50;;;;;;;;;;6182545;28;20166;-84
2021/10/05 12:46:58;;;;;;;1.67;1.58;;;;;;;;;;6182558;28;20543;-83
2021/10/05 12:50:00;;;;;;;2.28;1.70;;;;;;;;;;6188507;28;20057;-85
2021/10/05 12:53:03;;;;;;;1.50;1.40;;;;;;;;;;6183872;28;20088;-85
2021/10/05 12:56:06;;;;;;;1.50;1.38;;;;;;;;;;6186457;28;20046;-87
2021/10/05 12:59:09;;;;;;;1.87;1.30;;;;;;;;;;6204495;28;20542;-86
2021/10/05 13:02:10;;;;;;;1.60;1.50;;;;;;;;;;6180762;28;20051;-83
2021/10/05 13:05:12;;;;;;;1.35;1.23;;;;;;;;;;6168498;28;20134;-84
2021/10/05 13:08:14;;;;;;;1.20;1.10;;;;;;;;;;6199008;28;20701;-84
2021/10/05 13:11:16;;;;;;;1.50;1.20;;;;;;;;;;6181400;28;20042;-86
2021/10/05 13:14:17;;;;;;;1.95;1.00;;;;;;;;;;6160948;28;20050;-86
2021/10/05 13:17:19;;;;;;;1.67;1.20;;;;;;;;;;6208913;28;20052;-83
2021/10/05 13:20:22;;;;;;;2.13;1.10;;;;;;;;;;6216467;28;20053;-85
2021/10/05 13:23:24;;;;;;;;;;;;;;;;;;6191835;28;20046;-84
2021/10/05 13:26:26;;;;;;;1.67;1.52;;;;;;;;;;6181763;28;20033;-84
2021/10/05 13:29:27;;;;;;;1.20;1.00;;;;;;;;;;6185866;28;20043;-85
2021/10/05 13:32:29;;;;;;;1.60;0.90;;;;;;;;;;6215272;28;20102;-85
2021/10/05 13:35:31;;;;;;;1.40;1.10;;;;;;;;;;6210080;28;20058;-82
2021/10/05 13:38:32;;;;;;;1.02;0.98;;;;;;;;;;6194741;28;20046;-84
2021/10/05 13:41:34;;;;;;;1.17;1.00;;;;;;;;;;6200255;28;20034;-82
2021/10/05 13:44:36;;;;;;;1.23;1.13;;;;;;;;;;6226623;28;20053;-84
2021/10/05 13:47:38;;;;;;;4.43;1.40;;;;;;;;;;6191999;28;20569;-83
2021/10/05 13:50:40;;;;;;;1.38;1.20;;;;;;;;;;6192802;28;20111;-85
2021/10/05 13:53:42;;;;;;;1.90;1.15;;;;;;;;;;6209381;28;20109;-83
2021/10/05 13:56:44;;;;;;;1.70;1.05;;;;;;;;;;6179548;28;20050;-85
2021/10/05 13:59:45;;;;;;;1.23;1.10;;;;;;;;;;6181778;28;20042;-85
2021/10/05 14:02:47;;;;;;;1.23;0.80;;;;;;;;;;6200490;28;20097;-86
2021/10/05 14:05:49;;;;;;;0.80;0.80;;;;;;;;;;6185951;28;20051;-84
2021/10/05 14:08:51;;;;;;;1.88;1.05;;;;;;;;;;6203779;28;20051;-84
2021/10/05 14:11:52;;;;;;;1.10;0.80;;;;;;;;;;6204231;28;20098;-85
2021/10/05 14:14:54;;;;;;;1.00;0.82;;;;;;;;;;6191696;28;20050;-84
2021/10/05 14:17:56;;;;;;;1.60;0.88;;;;;;;;;;6205029;28;20180;-84
2021/10/05 14:20:59;;;;;;;2.55;0.93;;;;;;;;;;6181232;28;20046;-83
2021/10/05 14:24:01;;;;;;;1.50;0.95;;;;;;;;;;6187797;28;20042;-83
2021/10/05 14:27:05;;;;;;;1.00;0.88;;;;;;;;;;6182713;28;20058;-84
2021/10/05 14:30:07;;;;;;;1.40;0.98;;;;;;;;;;6175599;28;20069;-83
2021/10/05 14:33:09;;;;;;;2.73;1.10;;;;;;;;;;6185762;28;20181;-83
2021/10/05 14:36:11;;;;;;;1.42;0.85;;;;;;;;;;6214959;28;20537;-82
2021/10/05 14:39:13;;;;;;;0.98;0.93;;;;;;;;;;6208222;28;20048;-84
2021/10/05 14:42:14;;;;;;;2.78;1.00;;;;;;;;;;6195865;28;20048;-83
2021/10/05 14:45:20;;;;;;;2.33;0.82;;;;;;;;;;6197105;28;20050;-82
2021/10/05 14:48:23;;;;;;;1.88;0.70;;;;;;;;;;6195560;28;20042;-84
2021/10/05 14:51:28;;;;;;;2.10;0.77;;;;;;;;;;6196549;28;20419;-84
2021/10/05 14:54:30;;;;;;;1.80;1.10;;;;;;;;;;6192868;28;20046;-84
2021/10/05 14:57:35;;;;;;;1.45;0.80;;;;;;;;;;6192876;28;20034;-85
2021/10/05 15:00:39;;;;;;;1.77;1.08;;;;;;;;;;6205447;28;20531;-86
2021/10/05 15:03:44;;;;;;;2.03;0.90;;;;;;;;;;6192727;28;20185;-84
2021/10/05 15:06:48;;;;;;;0.80;0.68;;;;;;;;;;6194698;28;20057;-85
2021/10/05 15:09:49;;;;;;;1.42;0.70;;;;;;;;;;6184072;28;20050;-82
2021/10/05 15:12:51;;;;;;;1.75;0.65;;;;;;;;;;6177740;28;20521;-84
2021/10/05 15:15:53;;;;;;;2.63;0.70;;;;;;;;;;6178334;28;20050;-82
2021/10/05 15:18:55;;;;;;;2.22;0.80;;;;;;;;;;6167560;28;20042;-83
2021/10/05 15:21:57;;;;;;;0.95;0.88;;;;;;;;;;6188838;28;20104;-82
2021/10/05 15:25:00;;;;;;;1.70;1.10;;;;;;;;;;6211734;28;20050;-81
2021/10/05 15:28:01;;;;;;;1.45;0.90;;;;;;;;;;6197432;28;20086;-83
2021/10/05 15:31:03;;;;;;;2.42;1.15;;;;;;;;;;6184256;28;20405;-81
2021/10/05 15:34:05;;;;;;;2.80;1.33;;;;;;;;;;6197736;28;20077;-82
2021/10/05 15:37:06;;;;;;;3.78;1.10;;;;;;;;;;6169218;28;20100;-80
2021/10/05 15:40:19;;;;;;;2.17;1.70;;;;;;;;;;6183725;28;20046;-83
2021/10/05 15:43:21;;;;;;;2.78;1.10;;;;;;;;;;6173341;28;20056;-82
2021/10/05 15:46:24;;;;;;;2.00;1.38;;;;;;;;;;6184837;28;20153;-82
2021/10/05 15:49:28;;;;;;;1.60;1.27;;;;;;;;;;6215373;28;20038;-82
2021/10/05 15:53:06;;;;;;;5.20;2.97;;;;;;;;;;6182414;28;20049;-83
2021/10/05 15:55:59;;;;;;;1.95;1.73;;;;;;;;;;6176183;28;20507;-83
2021/10/05 15:59:01;;;;;;;2.42;1.10;;;;;;;;;;6183659;28;20046;-82
2021/10/05 16:02:03;;;;;;;2.67;1.73;;;;;;;;;;6172640;28;20046;-82
2021/10/05 16:05:07;;;;;;;5.00;1.83;;;;;;;;;;6188725;28;20050;-80
2021/10/05 16:08:09;;;;;;;6.72;3.50;;;;;;;;;;6190163;28;20122;-79
2021/10/05 16:11:11;;;;;;;5.00;2.10;;;;;;;;;;6186573;28;20128;-81
2021/10/05 16:14:13;;;;;;;3.08;2.20;;;;;;;;;;6207722;28;20042;-80
2021/10/05 16:17:15;;;;;;;4.93;3.05;;;;;;;;;;6178015;28;20047;-80
2021/10/05 16:20:16;;;;;;;3.50;2.13;;;;;;;;;;6191750;28;20420;-81
2021/10/05 16:23:18;;;;;;;1.63;1.23;;;;;;;;;;6192024;28;20050;-80
2021/10/05 16:26:22;;;;;;;2.90;1.10;;;;;;;;;;6188958;28;20451;-83
2021/10/05 16:29:23;;;;;;;2.78;1.02;;;;;;;;;;6190926;28;20477;-83
2021/10/05 16:32:25;;;;;;;1.30;1.20;;;;;;;;;;6194036;28;20046;-83
2021/10/05 16:35:27;;;;;;;1.35;1.20;;;;;;;;;;6193709;28;20061;-81
2021/10/05 16:38:28;;;;;;;2.30;2.03;;;;;;;;;;6187406;28;20488;-80
2021/10/05 16:41:30;;;;;;;1.70;1.60;;;;;;;;;;6185853;28;20049;-83
2021/10/05 16:44:32;;;;;;;2.45;2.03;;;;;;;;;;6191556;28;20046;-82
2021/10/05 16:47:33;;;;;;;5.20;4.03;;;;;;;;;;6186410;28;20056;-82
2021/10/05 16:50:36;;;;;;;4.65;2.47;;;;;;;;;;6191431;28;20073;-83
2021/10/05 16:53:37;;;;;;;10.63;5.78;;;;;;;;;;6192016;28;20220;-83
2021/10/05 16:56:39;;;;;;;3.10;1.80;;;;;;;;;;6189580;28;20049;-83
2021/10/05 16:59:41;;;;;;;2.83;2.30;;;;;;;;;;6192245;28;20054;-83
2021/10/05 17:02:42;;;;;;;2.42;1.85;;;;;;;;;;6189023;28;20061;-82
2021/10/05 17:05:44;;;;;;;3.08;2.20;;;;;;;;;;6206058;28;20053;-81
2021/10/05 17:08:46;;;;;;;7.10;4.95;;;;;;;;;;6191868;28;20052;-82
2021/10/05 17:11:49;;;;;;;4.75;3.33;;;;;;;;;;6214983;28;20121;-83
2021/10/05 17:14:50;;;;;;;4.15;3.35;;;;;;;;;;6193567;28;20132;-83
2021/10/05 17:17:52;;;;;;;5.40;3.78;;;;;;;;;;6158822;28;20062;-83
2021/10/05 17:20:54;;;;;;;3.83;2.90;;;;;;;;;;6190244;28;20412;-83
2021/10/05 17:23:55;;;;;;;2.60;2.17;;;;;;;;;;6192914;28;20034;-81
2021/10/05 17:26:57;;;;;;;3.47;1.95;;;;;;;;;;6185819;28;20148;-81
2021/10/05 17:29:59;;;;;;;3.17;1.30;;;;;;;;;;6175528;28;20547;-83
2021/10/05 17:33:01;;;;;;;2.22;1.50;;;;;;;;;;6191581;28;20492;-84
2021/10/05 17:36:02;;;;;;;2.50;2.10;;;;;;;;;;6206454;28;20038;-84
2021/10/05 17:39:04;;;;;;;4.60;1.98;;;;;;;;;;6193210;28;20046;-82
2021/10/05 17:42:06;;;;;;;7.43;4.15;;;;;;;;;;6192373;28;20042;-83
2021/10/05 17:45:10;;;;;;;3.50;2.47;;;;;;;;;;6207037;28;20414;-84
2021/10/05 17:48:11;;;;;;;2.65;1.55;;;;;;;;;;6189495;28;20050;-82
2021/10/05 17:51:13;;;;;;;2.05;1.77;;;;;;;;;;6193693;28;20062;-81
2021/10/05 17:54:15;;;;;;;2.60;1.90;;;;;;;;;;6195169;28;20042;-83
2021/10/05 17:57:16;;;;;;;4.38;2.45;;;;;;;;;;6226878;28;20050;-83
2021/10/05 18:00:18;;;;;;;14.32;7.57;;;;;;;;;;6195599;28;20527;-82
2021/10/05 18:03:19;;;;;;;6.35;4.43;;;;;;;;;;6192321;28;20125;-81
2021/10/05 18:06:21;;;;;;;7.72;5.05;;;;;;;;;;6190228;28;20058;-82